Pagina principale
METAR-TAF:

METAR-TAF

Aeroporti :

Aeroporto di Haifa

Haifa, Israele

latitudine: 32-48N, longitudine: 035-02E, altezza: 8 m

Osservazione

Il bollettino è stato emesso 5 minuti fa, alle 18:50 UTC
Vento 3 kt da direzioni variabili
Temperature 16°C
Umidità 29%
Pressione 1015 hPa
Visibilità 10 km o più
nessuna nube inferiore a 1500 m e nessun cumulonembo

METAR: LLHA 211850Z VRB03KT CAVOK 16/M02 Q1015

Ora: 20:55 (18:55 UTC)

Previsione

Il bollettino è stato emesso 1 ora e 52 minuti fa, alle 17:03 UTC
Previsione valida dal 21 alle 18 UTC al 22 alle 18 UTC
Vento 8 kt da sud-est
Visibilità 10 km o più
nessuna nube inferiore a 1500 m e nessun cumulonembo
Evoluzione graduale
dal 22 alle 10 UTC al 22 alle 12 UTC
Vento 8 kt da ovest/sud-ovest

TAF: LLHA 211703Z 2118/2218 13008KT CAVOK BECMG 2210/2212 24008KT TX24/2212Z TN13/2204Z

Osservazioni e previsioni meteorologiche di più di 4000 aeroporti (messaggi METAR e TAF).

Le stazioni disponibili sono rappresentate dai dischi gialli e rossi sulla carta.

Puntare il mouse per vedere il nome della stazione.

Clicca sopra per visualizzare le osservazioni e previsioni meteorologiche.

Per cambiare la mappa : fare clic sui pulsanti verdi con una croce nera per ingrandire, il pulsante verde con un trattino per diminuire, o sulla freccia verde per le mappe adiacenti.


METAR-TAF: